Mendon, UT (84325)

3:47 AM MDT on August 21, 2014 (GMT -0600)
MesoWest MENDON UT US CAMPBELL | Change Station
CLOSE
Current Station
Personal Weather Station
Location: Mendon, UT
Elevation: 4523 ft
Nearby Weather Stations

Elev 4523 ft 41.71 °N, 111.98 °W | Updated 47 minutes ago

Overcast
Overcast
62 °F
Feels Like 62 °F
N
0
Wind Variable Wind from North
Gusts 0.0 mph

Today
High -- | Low -- °F
--% Chance of Precip.
Yesterday
High -- | Low -- °F
Precip. -- in
6:42 AM 8:18 PM
Waning Crescent, 15% visible
Pressure 29.87 in
Visibility 10.0 miles
Clouds Overcast 9000 ft
Dew Point 53 °F
Humidity 72%
Rainfall -999.00 in
Snow Depth Not available.
UV 0 out of 12
Pollen 7.00 out of 12
PM2.5 Good
Flu Activity Not available.
METAR KLGU 210851Z AUTO 16009KT 10SM OVC090 17/11 A3002 RMK AO2 SLP114 60000 T01720111 55003

More Conditions Fewer Conditions

Pressure 29.87 in
Visibility 10.0 miles
Clouds Overcast 9000 ft
Dew Point 53 °F
Humidity 72%
Rainfall -999.00 in
Snow Depth Not available.
UV 0 out of 12
Pollen 7.00 out of 12
PM2.5 Good
Flu Activity Not available.
METAR KLGU 210851Z AUTO 16009KT 10SM OVC090 17/11 A3002 RMK AO2 SLP114 60000 T01720111 55003

More Conditions Fewer Conditions

10-Day Weather Forecast

Almanac

Astronomy

Aug. 21, 2014 Rise Set
Actual Time 6:42 AM MDT 8:18 PM MDT
Civil Twilight 6:13 AM MDT 8:48 PM MDT
Nautical Twilight 5:37 AM MDT 9:23 PM MDT
Astronomical Twilight 4:59 AM MDT 10:01 PM MDT
Moon 3:14 AM MDT 5:51 PM MDT
Length of Visible Light 14h 34m
Length of Day
13h 36m
Tomorrow will be 2m 34s shorter.
Waning Crescent, 15% of the Moon is Illuminated
Today
Waning Crescent
Aug 25
New
Sep 2
First Quarter
Sep 8
Full
Sep 15
Last Quarter

Today's Extremes

State Highs State Lows

Community

WunderPhotos

Upload Photos

1,745,871 photos uploaded!

Nearby

Air Quality

  Air Quality AQ Index Pollutant
Yesterday Good
PM2.5
Current Good
PM2.5

Snow Depth

Station Depth Elevation
Temple Fork 0 in 7406 ft
Little Bear 0 in 6550 ft
Ben Lomond Peak 1 in 8000 ft
Horse Ridge 0 in 8160 ft
Parrish Creek 0 in 7740 ft

Earthquake Activity

City Distance Mag. Time & Date
No recent earthquake activity has been reported nearby.
Minimum magnitude displayed is 2.5.

Coastal Water Temperatures

Place Temperature
No Stations Reporting

Nearby Weather Stations